Eastern Shore: Past 24 Hour Conditions

 

St. Anthony Airport

04:30 PM NST 25 November 2014
This table is a summary of hourly weather conditions for the past 24 hours.
Date / Time
(NST)
Wind(knots) Conditions Visibility(km) Pressure(kPa) Air tempC) Relative humidity(%) Dew pointC) Wind Chill
25 November 2014
16:30 SW 32 gust 40 Clear 16 99.1 7 78 3 *
15:30 SW 29 gust 40 Sunny 16 99.0 7 78 4 *
14:30 SW 28 gust 39 Mostly Cloudy 16 99.1 7 83 5 *
13:30 SW 24 gust 35 Cloudy 16 99.1 8 86 5 *
12:30 SSW 28 gust 40 Cloudy 16 99.0 9 89 7 *
11:30 SSW 19 gust 30 Cloudy 16 99.1 8 94 8 *
10:30 SW 20 gust 28 Cloudy 11 99.2 7 98 7 *
9:30 SW 20 gust 29 Mist 3 99.2 7 98 7 *
8:30 SSE 8 Fog 0.2 99.3 2 99 2 *
7:30 SE 13 Light Rain 16 99.3 3 99 3 *
6:30 SE 9 Light Rain 8 99.5 3 98 2 *
5:30 SE 15 gust 22 Light Rain 16 99.5 2 97 2 *
4:30 SE 19 gust 24 Light Rain 16 N/A 1 96 1 *
3:30 SE 22 gust 27 Light Rain 16 N/A 1 96 0 *
2:30 SE 20 gust 27 Freezing Rain 16 100.4 0 96 0 *
1:30 SE 24 gust 30 Freezing Rain 8 100.6 0 96 -1 -8
0:30 SE 22 gust 28 Light Freezing Rain 16 101.0 -1 94 -2 -8
24 November 2014
23:30 SE 24 Light Freezing Rain 16 101.2 -2 93 -3 -10
22:30 SE 20 Light Snow 4 101.6 -2 95 -3 -10
21:30 SE 18 Cloudy 16 101.8 -2 75 -5 -9
20:30 SE 14 Cloudy 16 102.0 -2 75 -6 -9
19:30 SSE 11 Cloudy 16 102.2 -3 71 -7 -9
18:30 SSE 9 Mainly Clear 16 102.3 -4 68 -9 -9
17:30 SE 4 Mostly Cloudy 16 102.4 -5 74 -9 -9
16:30 S 5 Cloudy 16 102.5 -5 75 -9 -9
 
Map of Atlantic - Newfoundland marine weather areas Southwestern Grand Banks - 44138 Banquereau - 44139 Tail of the Bank - 44140 Nickerson Bank - 44251 Northeast Burgeo Bank - 44255 Blanc-Sablon Airport Cap Whittle Chevery Natashquan Airport Heath Point Miscou Island Grand Étang Ingonish Beach North Mountain St.Paul Island J.A. Douglas McCurdy Sydney Airport Charlottetown Airport East Point North Cape Argentia Bonavista Burgeo Cape Race Corner Brook Daniel's Harbour Englee Ferolle Point La Scie Port aux Basques Rocky Harbour Sagona Island St. Anthony Airport St. John's Int'l Airport St. Lawrence Stephenville Airport Twillingate Winterland Wreckhouse Cartwright Airport Mary's Harbour Grates Cove Pool's Island Marticot Island Long Pond Îles de la Madeleine Airport
Legend: buoyBuoy land stationLand Station